This is the latest recevied weather packets stored in our database for station/object N5CNB. If no packets are shown the sender has not sent any weather packets the latest 10 day(s).
| Time | Temp. | Humidity | Pressure | Rain* | Wind** | Luminosity | Snow |
|---|---|---|---|---|---|---|---|
| 1778112026 | 21.11° C | 77% | 1010.9 hPa | 0 mm | - | - | - |
| 1778111121 | 21.67° C | 77% | 1010.7 hPa | 0 mm | - | - | - |
| 1778110225 | 22.22° C | 76% | 1010.5 hPa | 0 mm | - | - | - |
| 1778109314 | 22.22° C | 77% | 1010.3 hPa | 0 mm | - | - | - |
| 1778108418 | 22.22° C | 77% | 1010.2 hPa | 0 mm | - | - | - |
| 1778107521 | 23.33° C | 75% | 1010.1 hPa | 0 mm | - | - | - |
| 1778106621 | 23.89° C | 77% | 1009.8 hPa | 0 mm | - | - | - |
| 1778105725 | 27.22° C | 78% | 1009.4 hPa | 0 mm | - | - | - |
| 1778102124 | 28.89° C | 77% | 1009.2 hPa | 0 mm | - | - | - |
| 1778101228 | 28.89° C | 76% | 1009.3 hPa | 0 mm | - | - | - |
| 1778098522 | 27.22° C | 81% | 1009.8 hPa | 0 mm | - | - | - |
| 1778097625 | 27.22° C | 80% | 1009.8 hPa | 0 mm | - | - | - |
| 1778096726 | 28.33° C | 77% | 1009.9 hPa | 0 mm | - | - | - |
| 1778095815 | 27.22° C | 81% | 1009.9 hPa | 0 mm | - | - | - |
| 1778093109 | 28.33° C | 77% | 1010.3 hPa | 0 mm | - | - | - |
| 1778092213 | 27.78° C | 79% | 1010.5 hPa | 0 mm | - | - | - |
| 1778091316 | 27.22° C | 79% | 1010.6 hPa | 0 mm | - | - | - |
| 1778090404 | 27.78° C | 77% | 1010.7 hPa | 0 mm | - | - | - |
| 1778087715 | 26.67° C | 83% | 1011.4 hPa | 0 mm | - | - | - |
| 1778086821 | 26.67° C | 83% | 1011.6 hPa | 0 mm | - | - | - |
| 1778085904 | 26.67° C | 82% | 1011.7 hPa | 0 mm | - | - | - |
| 1778085012 | 26.67° C | 83% | 1011.7 hPa | 0 mm | - | - | - |
| 1778081405 | 25.56° C | 84% | 1010.7 hPa | 0 mm | - | - | - |
| 1778077826 | 25° C | 86% | 1010.3 hPa | 0 mm | - | - | - |
| 1778076906 | 24.44° C | 87% | 1009.9 hPa | 0 mm | - | - | - |
* Rain latest hour (hover to see other rain measurements)
** Current wind speed in m/s (hover to see current wind gust speed)